22°C Temp
8°C Dewpoint
% Humidity
Temperature
0 KM/H
MPH
KTS
Calm
Due North

Wind Speed
Clear
Conditions
Pressure 1009.92 (hPa) - 29.82 (in)
Visibility 6.2 (mi) - 10.0 (km)

Current Conditions
YPPH
Location 20(km)
Metar :YPPH 221700Z 00000KT CAVOK 22/08 Q1010
Sun 23rd January 01:00 am

Airport
  Metar Aviation API Data Provided by https://www.checkwx.com/ PHP scripts by weather34.com ©2022